Aiken, South Carolina
Current Conditions -  °F | °C
As of 10:35 PM on Saturday 24 Jan 2015 (Local Time) from KAIK Reporting Station
Clear Clear  
Wind Chill: 35°   Ceiling: Unl
Heat Index: 41°   Visibility: 10mi
Dew Point: 32°   Wind: 9mph
Humidity: 70%   Direction: 250°WSW
Pressure: 29.93"   Gusts: NA
Location:  33.56°N, 81.73°W
Report Text: KAIK 250335Z AUTO 25008KT 10SM CLR 05/00 A2993 RMK AO2 PNO
Loading
Personal Weather Stations






























Interactive Weather Map New forecast layout! Learn more

10-Day Weather Forecast

Advertisements
Track Severe Weather on mobile